sensor_id;sensor_type;location;lat;lon;timestamp;temperature;humidity
35463;DHT22;21578;47.892;9.970;2022-07-12T00:01:44;15.70;90.80
35463;DHT22;21578;47.892;9.970;2022-07-12T00:06:31;15.60;91.00
35463;DHT22;21578;47.892;9.970;2022-07-12T00:11:18;15.60;91.50
35463;DHT22;21578;47.892;9.970;2022-07-12T00:16:07;15.60;91.30
35463;DHT22;21578;47.892;9.970;2022-07-12T00:20:54;15.50;91.70
35463;DHT22;21578;47.892;9.970;2022-07-12T00:25:41;15.50;92.10
35463;DHT22;21578;47.892;9.970;2022-07-12T00:30:28;15.50;92.00
35463;DHT22;21578;47.892;9.970;2022-07-12T00:35:17;15.40;92.50
35463;DHT22;21578;47.892;9.970;2022-07-12T00:40:05;15.30;92.70
35463;DHT22;21578;47.892;9.970;2022-07-12T00:44:54;15.30;92.50
35463;DHT22;21578;47.892;9.970;2022-07-12T00:49:41;15.30;92.80
35463;DHT22;21578;47.892;9.970;2022-07-12T00:54:29;15.20;92.90
35463;DHT22;21578;47.892;9.970;2022-07-12T00:59:16;15.20;93.10
35463;DHT22;21578;47.892;9.970;2022-07-12T01:04:04;15.20;93.30
35463;DHT22;21578;47.892;9.970;2022-07-12T01:08:51;15.10;93.40
35463;DHT22;21578;47.892;9.970;2022-07-12T01:13:40;15.10;93.80
35463;DHT22;21578;47.892;9.970;2022-07-12T01:18:27;15.10;93.90
35463;DHT22;21578;47.892;9.970;2022-07-12T01:23:16;15.10;93.80
35463;DHT22;21578;47.892;9.970;2022-07-12T01:28:04;15.10;93.90
35463;DHT22;21578;47.892;9.970;2022-07-12T01:32:51;15.10;94.20
35463;DHT22;21578;47.892;9.970;2022-07-12T01:37:40;15.00;94.30
35463;DHT22;21578;47.892;9.970;2022-07-12T01:42:29;15.00;94.30
35463;DHT22;21578;47.892;9.970;2022-07-12T01:47:17;15.00;94.50
35463;DHT22;21578;47.892;9.970;2022-07-12T01:52:05;14.90;94.60
35463;DHT22;21578;47.892;9.970;2022-07-12T01:56:52;14.90;94.50
35463;DHT22;21578;47.892;9.970;2022-07-12T02:01:40;14.80;94.50
35463;DHT22;21578;47.892;9.970;2022-07-12T02:06:28;14.80;94.70
35463;DHT22;21578;47.892;9.970;2022-07-12T02:11:16;14.80;94.60
35463;DHT22;21578;47.892;9.970;2022-07-12T02:16:04;14.80;94.60
35463;DHT22;21578;47.892;9.970;2022-07-12T02:20:52;14.80;94.80
35463;DHT22;21578;47.892;9.970;2022-07-12T02:25:39;14.70;95.00
35463;DHT22;21578;47.892;9.970;2022-07-12T02:30:26;14.60;95.40
35463;DHT22;21578;47.892;9.970;2022-07-12T02:35:13;14.40;94.50
35463;DHT22;21578;47.892;9.970;2022-07-12T02:40:02;14.30;95.10
35463;DHT22;21578;47.892;9.970;2022-07-12T02:45:07;14.40;95.40
35463;DHT22;21578;47.892;9.970;2022-07-12T02:49:55;14.40;95.50
35463;DHT22;21578;47.892;9.970;2022-07-12T02:54:42;14.40;95.90
35463;DHT22;21578;47.892;9.970;2022-07-12T02:59:30;14.40;96.20
35463;DHT22;21578;47.892;9.970;2022-07-12T03:04:17;14.40;96.50
35463;DHT22;21578;47.892;9.970;2022-07-12T03:09:04;14.30;96.60
35463;DHT22;21578;47.892;9.970;2022-07-12T03:13:51;14.20;96.60
35463;DHT22;21578;47.892;9.970;2022-07-12T03:18:41;14.20;96.60
35463;DHT22;21578;47.892;9.970;2022-07-12T03:23:29;14.20;96.60
35463;DHT22;21578;47.892;9.970;2022-07-12T03:28:16;14.20;96.60
35463;DHT22;21578;47.892;9.970;2022-07-12T03:33:03;14.20;96.60
35463;DHT22;21578;47.892;9.970;2022-07-12T03:37:52;14.20;96.60
35463;DHT22;21578;47.892;9.970;2022-07-12T03:42:39;14.20;96.60
35463;DHT22;21578;47.892;9.970;2022-07-12T03:47:26;14.20;96.60
35463;DHT22;21578;47.892;9.970;2022-07-12T03:52:13;14.20;96.60
35463;DHT22;21578;47.892;9.970;2022-07-12T03:57:03;14.20;96.60
35463;DHT22;21578;47.892;9.970;2022-07-12T04:02:02;14.20;96.60
35463;DHT22;21578;47.892;9.970;2022-07-12T04:06:50;14.20;96.60
35463;DHT22;21578;47.892;9.970;2022-07-12T04:11:37;14.20;96.60
35463;DHT22;21578;47.892;9.970;2022-07-12T04:16:25;14.30;96.60
35463;DHT22;21578;47.892;9.970;2022-07-12T04:21:13;14.30;96.60
35463;DHT22;21578;47.892;9.970;2022-07-12T04:26:00;14.30;96.60
35463;DHT22;21578;47.892;9.970;2022-07-12T04:30:47;14.30;96.60
35463;DHT22;21578;47.892;9.970;2022-07-12T04:35:35;14.40;96.60
35463;DHT22;21578;47.892;9.970;2022-07-12T04:40:23;14.40;96.60
35463;DHT22;21578;47.892;9.970;2022-07-12T04:45:10;14.50;96.60
35463;DHT22;21578;47.892;9.970;2022-07-12T04:49:57;14.60;96.60
35463;DHT22;21578;47.892;9.970;2022-07-12T04:54:46;14.70;96.60
35463;DHT22;21578;47.892;9.970;2022-07-12T04:59:33;14.80;96.60
35463;DHT22;21578;47.892;9.970;2022-07-12T05:04:20;15.10;96.50
35463;DHT22;21578;47.892;9.970;2022-07-12T05:09:07;15.20;95.90
35463;DHT22;21578;47.892;9.970;2022-07-12T05:13:56;15.20;96.60
35463;DHT22;21578;47.892;9.970;2022-07-12T05:18:43;15.30;96.60
35463;DHT22;21578;47.892;9.970;2022-07-12T05:23:30;15.30;96.50
35463;DHT22;21578;47.892;9.970;2022-07-12T05:28:17;15.50;96.10
35463;DHT22;21578;47.892;9.970;2022-07-12T05:33:05;15.60;96.30
35463;DHT22;21578;47.892;9.970;2022-07-12T05:37:52;15.70;96.30
35463;DHT22;21578;47.892;9.970;2022-07-12T05:42:39;15.70;96.50
35463;DHT22;21578;47.892;9.970;2022-07-12T05:47:26;15.90;95.30
35463;DHT22;21578;47.892;9.970;2022-07-12T05:52:15;16.00;95.20
35463;DHT22;21578;47.892;9.970;2022-07-12T05:57:19;16.10;94.40
35463;DHT22;21578;47.892;9.970;2022-07-12T06:02:07;16.20;94.60
35463;DHT22;21578;47.892;9.970;2022-07-12T06:06:54;16.30;94.40
35463;DHT22;21578;47.892;9.970;2022-07-12T06:11:43;16.40;93.70
35463;DHT22;21578;47.892;9.970;2022-07-12T06:16:30;16.40;94.10
35463;DHT22;21578;47.892;9.970;2022-07-12T06:21:17;16.50;93.80
35463;DHT22;21578;47.892;9.970;2022-07-12T06:26:04;16.60;93.60
35463;DHT22;21578;47.892;9.970;2022-07-12T06:30:53;16.80;92.10
35463;DHT22;21578;47.892;9.970;2022-07-12T06:35:40;16.80;92.00
35463;DHT22;21578;47.892;9.970;2022-07-12T06:40:27;16.90;91.50
35463;DHT22;21578;47.892;9.970;2022-07-12T06:45:14;17.00;91.00
35463;DHT22;21578;47.892;9.970;2022-07-12T06:50:03;17.00;91.30
35463;DHT22;21578;47.892;9.970;2022-07-12T06:54:50;17.10;90.00
35463;DHT22;21578;47.892;9.970;2022-07-12T06:59:37;17.20;89.10
35463;DHT22;21578;47.892;9.970;2022-07-12T07:04:24;17.20;89.80
35463;DHT22;21578;47.892;9.970;2022-07-12T07:09:13;17.30;88.10
35463;DHT22;21578;47.892;9.970;2022-07-12T07:14:00;17.40;87.90
35463;DHT22;21578;47.892;9.970;2022-07-12T07:18:48;17.60;87.20
35463;DHT22;21578;47.892;9.970;2022-07-12T07:23:35;17.70;85.40
35463;DHT22;21578;47.892;9.970;2022-07-12T07:28:23;17.90;84.20
35463;DHT22;21578;47.892;9.970;2022-07-12T07:33:10;18.00;83.40
35463;DHT22;21578;47.892;9.970;2022-07-12T07:37:58;18.00;83.00
35463;DHT22;21578;47.892;9.970;2022-07-12T07:42:45;18.10;83.70
35463;DHT22;21578;47.892;9.970;2022-07-12T07:47:42;18.20;84.60
35463;DHT22;21578;47.892;9.970;2022-07-12T07:52:29;18.30;83.20
35463;DHT22;21578;47.892;9.970;2022-07-12T07:57:16;18.40;81.90
35463;DHT22;21578;47.892;9.970;2022-07-12T08:02:04;18.50;82.20
35463;DHT22;21578;47.892;9.970;2022-07-12T08:06:53;18.60;81.10
35463;DHT22;21578;47.892;9.970;2022-07-12T08:11:42;18.60;81.30
35463;DHT22;21578;47.892;9.970;2022-07-12T08:16:29;18.60;81.30
35463;DHT22;21578;47.892;9.970;2022-07-12T08:21:17;18.80;79.50
35463;DHT22;21578;47.892;9.970;2022-07-12T08:26:05;18.80;78.70
35463;DHT22;21578;47.892;9.970;2022-07-12T08:30:52;18.90;77.50
35463;DHT22;21578;47.892;9.970;2022-07-12T08:35:40;19.00;79.20
35463;DHT22;21578;47.892;9.970;2022-07-12T08:40:27;19.10;75.90
35463;DHT22;21578;47.892;9.970;2022-07-12T08:45:16;19.20;76.20
35463;DHT22;21578;47.892;9.970;2022-07-12T08:50:13;19.30;76.20
35463;DHT22;21578;47.892;9.970;2022-07-12T08:55:16;19.50;76.80
35463;DHT22;21578;47.892;9.970;2022-07-12T09:00:04;19.60;76.10
35463;DHT22;21578;47.892;9.970;2022-07-12T09:05:05;19.80;74.50
35463;DHT22;21578;47.892;9.970;2022-07-12T09:10:02;20.00;75.70
35463;DHT22;21578;47.892;9.970;2022-07-12T09:14:52;20.00;73.60
35463;DHT22;21578;47.892;9.970;2022-07-12T09:19:39;20.10;73.80
35463;DHT22;21578;47.892;9.970;2022-07-12T09:24:28;20.20;74.10
35463;DHT22;21578;47.892;9.970;2022-07-12T09:29:15;20.40;72.40
35463;DHT22;21578;47.892;9.970;2022-07-12T09:34:04;20.20;72.80
35463;DHT22;21578;47.892;9.970;2022-07-12T09:39:08;20.20;73.20
35463;DHT22;21578;47.892;9.970;2022-07-12T09:43:57;20.30;73.40
35463;DHT22;21578;47.892;9.970;2022-07-12T09:48:46;20.50;72.50
35463;DHT22;21578;47.892;9.970;2022-07-12T09:53:38;20.60;71.00
35463;DHT22;21578;47.892;9.970;2022-07-12T09:58:27;20.50;70.60
35463;DHT22;21578;47.892;9.970;2022-07-12T10:03:18;20.60;72.60
35463;DHT22;21578;47.892;9.970;2022-07-12T10:08:07;20.70;71.00
35463;DHT22;21578;47.892;9.970;2022-07-12T10:12:54;20.70;70.00
35463;DHT22;21578;47.892;9.970;2022-07-12T10:17:50;21.00;69.80
35463;DHT22;21578;47.892;9.970;2022-07-12T10:22:39;21.10;68.10
35463;DHT22;21578;47.892;9.970;2022-07-12T10:27:30;21.10;69.10
35463;DHT22;21578;47.892;9.970;2022-07-12T10:32:21;21.40;69.00
35463;DHT22;21578;47.892;9.970;2022-07-12T10:37:11;21.60;66.40
35463;DHT22;21578;47.892;9.970;2022-07-12T10:42:15;21.70;65.90
35463;DHT22;21578;47.892;9.970;2022-07-12T10:47:04;21.80;64.70
35463;DHT22;21578;47.892;9.970;2022-07-12T10:52:13;21.90;66.40
35463;DHT22;21578;47.892;9.970;2022-07-12T10:57:00;22.10;65.70
35463;DHT22;21578;47.892;9.970;2022-07-12T11:01:49;22.00;65.20
35463;DHT22;21578;47.892;9.970;2022-07-12T11:06:39;22.00;64.30
35463;DHT22;21578;47.892;9.970;2022-07-12T11:11:28;22.50;63.60
35463;DHT22;21578;47.892;9.970;2022-07-12T11:16:16;22.70;64.90
35463;DHT22;21578;47.892;9.970;2022-07-12T11:21:05;22.50;64.40
35463;DHT22;21578;47.892;9.970;2022-07-12T11:25:53;22.40;66.30
35463;DHT22;21578;47.892;9.970;2022-07-12T11:30:48;22.80;67.20
35463;DHT22;21578;47.892;9.970;2022-07-12T11:35:36;22.90;65.10
35463;DHT22;21578;47.892;9.970;2022-07-12T11:40:26;23.10;65.00
35463;DHT22;21578;47.892;9.970;2022-07-12T11:45:15;23.20;63.60
35463;DHT22;21578;47.892;9.970;2022-07-12T11:50:02;23.30;62.10
35463;DHT22;21578;47.892;9.970;2022-07-12T11:54:50;23.30;60.20
35463;DHT22;21578;47.892;9.970;2022-07-12T11:59:39;23.70;61.10
35463;DHT22;21578;47.892;9.970;2022-07-12T12:04:26;24.10;58.20
35463;DHT22;21578;47.892;9.970;2022-07-12T12:09:13;23.90;58.40
35463;DHT22;21578;47.892;9.970;2022-07-12T12:14:01;24.20;56.30
35463;DHT22;21578;47.892;9.970;2022-07-12T12:18:50;24.60;55.00
35463;DHT22;21578;47.892;9.970;2022-07-12T12:23:38;24.60;60.40
35463;DHT22;21578;47.892;9.970;2022-07-12T12:28:25;24.70;59.20
35463;DHT22;21578;47.892;9.970;2022-07-12T12:33:34;25.00;56.10
35463;DHT22;21578;47.892;9.970;2022-07-12T12:38:28;25.30;56.20
35463;DHT22;21578;47.892;9.970;2022-07-12T12:43:18;25.70;54.90
35463;DHT22;21578;47.892;9.970;2022-07-12T12:48:06;26.30;53.40
35463;DHT22;21578;47.892;9.970;2022-07-12T12:52:53;26.50;53.10
35463;DHT22;21578;47.892;9.970;2022-07-12T12:57:43;26.70;54.30
35463;DHT22;21578;47.892;9.970;2022-07-12T13:02:30;26.60;54.10
35463;DHT22;21578;47.892;9.970;2022-07-12T13:07:17;26.80;54.80
35463;DHT22;21578;47.892;9.970;2022-07-12T13:12:05;27.20;54.70
35463;DHT22;21578;47.892;9.970;2022-07-12T13:16:53;26.80;53.60
35463;DHT22;21578;47.892;9.970;2022-07-12T13:21:40;27.40;52.20
35463;DHT22;21578;47.892;9.970;2022-07-12T13:26:27;26.70;50.20
35463;DHT22;21578;47.892;9.970;2022-07-12T13:31:14;26.50;49.80
35463;DHT22;21578;47.892;9.970;2022-07-12T13:36:03;25.90;50.70
35463;DHT22;21578;47.892;9.970;2022-07-12T13:40:50;26.40;51.00
35463;DHT22;21578;47.892;9.970;2022-07-12T13:45:37;26.80;50.40
35463;DHT22;21578;47.892;9.970;2022-07-12T13:50:25;27.10;50.20
35463;DHT22;21578;47.892;9.970;2022-07-12T13:55:14;27.50;48.90
35463;DHT22;21578;47.892;9.970;2022-07-12T14:00:03;28.30;49.20
35463;DHT22;21578;47.892;9.970;2022-07-12T14:04:50;28.40;47.70
35463;DHT22;21578;47.892;9.970;2022-07-12T14:09:37;27.60;49.50
35463;DHT22;21578;47.892;9.970;2022-07-12T14:14:26;26.60;51.40
35463;DHT22;21578;47.892;9.970;2022-07-12T14:19:26;26.00;55.30
35463;DHT22;21578;47.892;9.970;2022-07-12T14:24:13;26.60;55.10
35463;DHT22;21578;47.892;9.970;2022-07-12T14:29:01;26.70;51.80
35463;DHT22;21578;47.892;9.970;2022-07-12T14:33:49;26.70;53.80
35463;DHT22;21578;47.892;9.970;2022-07-12T14:38:36;27.00;54.00
35463;DHT22;21578;47.892;9.970;2022-07-12T14:43:23;27.50;53.00
35463;DHT22;21578;47.892;9.970;2022-07-12T14:48:10;27.60;52.90
35463;DHT22;21578;47.892;9.970;2022-07-12T14:52:59;27.40;52.20
35463;DHT22;21578;47.892;9.970;2022-07-12T14:57:46;27.30;52.60
35463;DHT22;21578;47.892;9.970;2022-07-12T15:02:34;26.70;53.20
35463;DHT22;21578;47.892;9.970;2022-07-12T15:07:21;27.00;52.40
35463;DHT22;21578;47.892;9.970;2022-07-12T15:12:09;27.30;51.80
35463;DHT22;21578;47.892;9.970;2022-07-12T15:16:56;28.20;49.10
35463;DHT22;21578;47.892;9.970;2022-07-12T15:21:43;28.10;49.20
35463;DHT22;21578;47.892;9.970;2022-07-12T15:26:31;27.90;48.60
35463;DHT22;21578;47.892;9.970;2022-07-12T15:31:19;28.10;48.60
35463;DHT22;21578;47.892;9.970;2022-07-12T15:36:07;27.60;50.50
35463;DHT22;21578;47.892;9.970;2022-07-12T15:40:54;27.50;50.20
35463;DHT22;21578;47.892;9.970;2022-07-12T15:45:41;27.60;49.00
35463;DHT22;21578;47.892;9.970;2022-07-12T15:50:29;27.50;49.50
35463;DHT22;21578;47.892;9.970;2022-07-12T15:55:17;28.00;49.00
35463;DHT22;21578;47.892;9.970;2022-07-12T16:00:05;28.50;46.90
35463;DHT22;21578;47.892;9.970;2022-07-12T16:04:53;28.20;46.50
35463;DHT22;21578;47.892;9.970;2022-07-12T16:09:42;27.60;47.30
35463;DHT22;21578;47.892;9.970;2022-07-12T16:14:29;27.30;48.70
35463;DHT22;21578;47.892;9.970;2022-07-12T16:19:16;27.80;49.40
35463;DHT22;21578;47.892;9.970;2022-07-12T16:24:03;28.40;48.80
35463;DHT22;21578;47.892;9.970;2022-07-12T16:28:52;28.40;49.50
35463;DHT22;21578;47.892;9.970;2022-07-12T16:33:39;27.80;50.40
35463;DHT22;21578;47.892;9.970;2022-07-12T16:38:27;28.10;50.10
35463;DHT22;21578;47.892;9.970;2022-07-12T16:43:15;28.40;49.10
35463;DHT22;21578;47.892;9.970;2022-07-12T16:48:04;28.00;49.60
35463;DHT22;21578;47.892;9.970;2022-07-12T16:52:51;28.00;50.60
35463;DHT22;21578;47.892;9.970;2022-07-12T16:57:38;28.70;49.40
35463;DHT22;21578;47.892;9.970;2022-07-12T17:02:25;28.10;50.40
35463;DHT22;21578;47.892;9.970;2022-07-12T17:07:14;28.00;50.50
35463;DHT22;21578;47.892;9.970;2022-07-12T17:12:01;27.90;49.60
35463;DHT22;21578;47.892;9.970;2022-07-12T17:16:48;28.00;49.50
35463;DHT22;21578;47.892;9.970;2022-07-12T17:21:35;28.10;50.20
35463;DHT22;21578;47.892;9.970;2022-07-12T17:26:24;28.30;49.80
35463;DHT22;21578;47.892;9.970;2022-07-12T17:31:11;28.10;50.10
35463;DHT22;21578;47.892;9.970;2022-07-12T17:35:58;28.10;49.70
35463;DHT22;21578;47.892;9.970;2022-07-12T17:40:45;27.80;50.00
35463;DHT22;21578;47.892;9.970;2022-07-12T17:45:34;27.70;50.90
35463;DHT22;21578;47.892;9.970;2022-07-12T17:50:21;27.50;51.00
35463;DHT22;21578;47.892;9.970;2022-07-12T17:55:10;27.00;51.80
35463;DHT22;21578;47.892;9.970;2022-07-12T17:59:57;26.30;53.30
35463;DHT22;21578;47.892;9.970;2022-07-12T18:04:45;26.40;53.30
35463;DHT22;21578;47.892;9.970;2022-07-12T18:09:32;26.60;52.70
35463;DHT22;21578;47.892;9.970;2022-07-12T18:14:19;26.50;53.20
35463;DHT22;21578;47.892;9.970;2022-07-12T18:19:24;26.80;53.50
35463;DHT22;21578;47.892;9.970;2022-07-12T18:24:12;27.20;52.60
35463;DHT22;21578;47.892;9.970;2022-07-12T18:28:59;27.30;52.00
35463;DHT22;21578;47.892;9.970;2022-07-12T18:33:46;27.30;52.60
35463;DHT22;21578;47.892;9.970;2022-07-12T18:38:33;27.10;52.70
35463;DHT22;21578;47.892;9.970;2022-07-12T18:43:22;26.80;53.40
35463;DHT22;21578;47.892;9.970;2022-07-12T18:48:09;26.60;53.70
35463;DHT22;21578;47.892;9.970;2022-07-12T18:52:57;26.20;54.00
35463;DHT22;21578;47.892;9.970;2022-07-12T18:57:44;25.70;55.80
35463;DHT22;21578;47.892;9.970;2022-07-12T19:02:33;25.30;57.60
35463;DHT22;21578;47.892;9.970;2022-07-12T19:07:20;24.90;58.90
35463;DHT22;21578;47.892;9.970;2022-07-12T19:12:07;24.60;59.30
35463;DHT22;21578;47.892;9.970;2022-07-12T19:16:54;24.30;60.10
35463;DHT22;21578;47.892;9.970;2022-07-12T19:21:42;24.00;60.70
35463;DHT22;21578;47.892;9.970;2022-07-12T19:26:29;23.80;61.30
35463;DHT22;21578;47.892;9.970;2022-07-12T19:31:16;23.60;62.40
35463;DHT22;21578;47.892;9.970;2022-07-12T19:36:04;23.30;63.60
35463;DHT22;21578;47.892;9.970;2022-07-12T19:40:52;23.10;63.80
35463;DHT22;21578;47.892;9.970;2022-07-12T19:45:39;22.90;64.40
35463;DHT22;21578;47.892;9.970;2022-07-12T19:50:26;22.70;64.70
35463;DHT22;21578;47.892;9.970;2022-07-12T19:55:13;22.60;65.00
35463;DHT22;21578;47.892;9.970;2022-07-12T20:00:03;22.40;65.20
35463;DHT22;21578;47.892;9.970;2022-07-12T20:04:50;22.20;65.90
35463;DHT22;21578;47.892;9.970;2022-07-12T20:09:38;22.10;66.00
35463;DHT22;21578;47.892;9.970;2022-07-12T20:14:25;21.90;65.90
35463;DHT22;21578;47.892;9.970;2022-07-12T20:19:13;21.80;68.20
35463;DHT22;21578;47.892;9.970;2022-07-12T20:24:02;21.60;70.00
35463;DHT22;21578;47.892;9.970;2022-07-12T20:28:49;21.40;70.80
35463;DHT22;21578;47.892;9.970;2022-07-12T20:33:36;21.10;71.70
35463;DHT22;21578;47.892;9.970;2022-07-12T20:38:41;20.90;72.00
35463;DHT22;21578;47.892;9.970;2022-07-12T20:43:29;20.80;73.00
35463;DHT22;21578;47.892;9.970;2022-07-12T20:48:16;20.60;73.30
35463;DHT22;21578;47.892;9.970;2022-07-12T20:53:03;20.40;72.30
35463;DHT22;21578;47.892;9.970;2022-07-12T20:57:53;20.40;70.30
35463;DHT22;21578;47.892;9.970;2022-07-12T21:02:40;20.40;70.10
35463;DHT22;21578;47.892;9.970;2022-07-12T21:07:27;20.40;69.30
35463;DHT22;21578;47.892;9.970;2022-07-12T21:12:14;20.40;68.70
35463;DHT22;21578;47.892;9.970;2022-07-12T21:17:03;20.40;68.80
35463;DHT22;21578;47.892;9.970;2022-07-12T21:21:50;20.30;69.30
35463;DHT22;21578;47.892;9.970;2022-07-12T21:26:37;20.30;69.60
35463;DHT22;21578;47.892;9.970;2022-07-12T21:31:25;20.30;69.30
35463;DHT22;21578;47.892;9.970;2022-07-12T21:36:14;20.20;69.70
35463;DHT22;21578;47.892;9.970;2022-07-12T21:41:01;20.10;70.10
35463;DHT22;21578;47.892;9.970;2022-07-12T21:45:48;20.00;70.70
35463;DHT22;21578;47.892;9.970;2022-07-12T21:50:36;19.90;70.80
35463;DHT22;21578;47.892;9.970;2022-07-12T21:55:24;19.70;70.80
35463;DHT22;21578;47.892;9.970;2022-07-12T22:00:12;19.60;70.90
35463;DHT22;21578;47.892;9.970;2022-07-12T22:04:59;19.50;71.60
35463;DHT22;21578;47.892;9.970;2022-07-12T22:09:46;19.50;71.60
35463;DHT22;21578;47.892;9.970;2022-07-12T22:14:35;19.40;72.10
35463;DHT22;21578;47.892;9.970;2022-07-12T22:19:22;19.30;72.50
35463;DHT22;21578;47.892;9.970;2022-07-12T22:24:09;19.20;72.60
35463;DHT22;21578;47.892;9.970;2022-07-12T22:28:57;19.20;72.60
35463;DHT22;21578;47.892;9.970;2022-07-12T22:33:45;19.10;72.80
35463;DHT22;21578;47.892;9.970;2022-07-12T22:38:33;19.00;73.00
35463;DHT22;21578;47.892;9.970;2022-07-12T22:43:20;19.00;73.00
35463;DHT22;21578;47.892;9.970;2022-07-12T22:48:07;19.00;73.00
35463;DHT22;21578;47.892;9.970;2022-07-12T22:52:55;18.90;73.20
35463;DHT22;21578;47.892;9.970;2022-07-12T22:57:42;18.90;73.50
35463;DHT22;21578;47.892;9.970;2022-07-12T23:02:29;18.80;74.00
35463;DHT22;21578;47.892;9.970;2022-07-12T23:07:16;18.70;74.50
35463;DHT22;21578;47.892;9.970;2022-07-12T23:12:05;18.60;74.70
35463;DHT22;21578;47.892;9.970;2022-07-12T23:16:52;18.60;74.70
35463;DHT22;21578;47.892;9.970;2022-07-12T23:21:40;18.50;74.90
35463;DHT22;21578;47.892;9.970;2022-07-12T23:26:27;18.50;74.90
35463;DHT22;21578;47.892;9.970;2022-07-12T23:31:16;18.50;75.10
35463;DHT22;21578;47.892;9.970;2022-07-12T23:36:03;18.50;75.20
35463;DHT22;21578;47.892;9.970;2022-07-12T23:40:50;18.40;75.30
35463;DHT22;21578;47.892;9.970;2022-07-12T23:45:37;18.30;75.40
35463;DHT22;21578;47.892;9.970;2022-07-12T23:50:26;18.30;75.40
35463;DHT22;21578;47.892;9.970;2022-07-12T23:55:13;18.30;75.30
